Time;durP1;ratioP1;P1;durP2;ratioP2;P2;SDS_P1;SDS_P2;PMS_P1;PMS_P2;Temp;Humidity;BMP_temperature;BMP_pressure;BME280_temperature;BME280_humidity;BME280_pressure;Samples;Min_cycle;Max_cycle;Signal;HPM_P1;HPM_P2
2021/04/18 00:00:54;;;;;;;10.35;8.57;;;8.50;38.80;;;;;;4976178;28;20034;-79
2021/04/18 00:03:20;;;;;;;9.20;8.18;;;8.50;38.90;;;;;;5024817;28;20041;-80
2021/04/18 00:05:48;;;;;;;9.40;7.90;;;8.40;38.70;;;;;;5008943;28;20032;-79
2021/04/18 00:08:15;;;;;;;9.45;8.48;;;8.40;38.80;;;;;;5009011;28;20374;-80
2021/04/18 00:10:41;;;;;;;12.05;8.05;;;8.40;38.90;;;;;;5008945;28;20091;-79
2021/04/18 00:13:11;;;;;;;10.52;8.10;;;8.40;39.00;;;;;;5007690;28;20116;-80
2021/04/18 00:15:42;;;;;;;11.27;7.88;;;8.30;38.90;;;;;;5008359;28;20029;-78
2021/04/18 00:18:09;;;;;;;9.45;8.43;;;8.30;38.90;;;;;;5008888;28;20152;-81
2021/04/18 00:20:35;;;;;;;9.90;8.90;;;8.30;39.00;;;;;;5025130;28;20026;-78
2021/04/18 00:23:03;;;;;;;9.55;8.20;;;8.20;38.90;;;;;;5011845;28;20374;-81
2021/04/18 00:25:29;;;;;;;9.23;8.20;;;8.20;38.90;;;;;;4996253;28;20033;-80
2021/04/18 00:27:55;;;;;;;8.68;7.70;;;8.20;39.00;;;;;;5012140;28;20025;-80
2021/04/18 00:30:23;;;;;;;10.18;7.90;;;8.10;38.90;;;;;;5026037;28;20044;-80
2021/04/18 00:32:50;;;;;;;9.38;7.72;;;8.10;39.00;;;;;;4995990;28;20060;-81
2021/04/18 00:35:19;;;;;;;10.73;8.30;;;8.00;38.80;;;;;;5012431;28;20564;-78
2021/04/18 00:37:46;;;;;;;8.60;7.63;;;8.00;38.90;;;;;;5012639;28;20033;-80
2021/04/18 00:40:22;;;;;;;10.50;7.93;;;7.90;38.80;;;;;;5012358;28;20227;-79
2021/04/18 00:42:49;;;;;;;10.25;7.97;;;7.90;38.90;;;;;;5011486;28;20045;-80
2021/04/18 00:45:16;;;;;;;8.82;7.93;;;7.90;38.90;;;;;;4995756;28;20049;-78
2021/04/18 00:47:45;;;;;;;10.02;8.23;;;7.80;38.80;;;;;;5028755;28;20029;-78
2021/04/18 00:50:14;;;;;;;10.25;7.90;;;7.80;38.90;;;;;;4995402;28;20500;-78
2021/04/18 00:52:40;;;;;;;10.80;8.10;;;7.70;38.80;;;;;;5011629;28;20030;-78
2021/04/18 00:55:08;;;;;;;10.30;7.72;;;7.70;38.80;;;;;;5011245;28;20034;-78
2021/04/18 00:57:35;;;;;;;9.57;8.18;;;7.70;38.90;;;;;;5011866;28;20025;-79
2021/04/18 01:00:05;;;;;;;9.55;7.75;;;7.60;39.30;;;;;;5011977;28;20037;-79
2021/04/18 01:02:32;;;;;;;9.73;8.73;;;7.60;38.90;;;;;;5011373;28;20037;-79
2021/04/18 01:04:58;;;;;;;9.13;7.55;;;7.60;38.90;;;;;;5011474;28;20444;-81
2021/04/18 01:07:24;;;;;;;8.57;7.78;;;7.50;38.80;;;;;;5011082;28;20033;-78
2021/04/18 01:09:51;;;;;;;9.50;7.40;;;7.50;38.90;;;;;;5027705;28;20038;-79
2021/04/18 01:12:17;;;;;;;8.48;7.20;;;7.50;38.90;;;;;;5011006;28;20053;-79
2021/04/18 01:14:44;;;;;;;9.05;8.15;;;7.40;38.80;;;;;;4994724;28;20082;-77
2021/04/18 01:17:10;;;;;;;9.07;7.88;;;7.40;38.90;;;;;;5011620;28;20159;-80
2021/04/18 01:19:36;;;;;;;11.48;8.73;;;7.40;38.90;;;;;;5027284;28;20443;-78
2021/04/18 01:22:03;;;;;;;11.75;8.68;;;7.40;39.00;;;;;;5011006;28;20551;-78
2021/04/18 01:24:48;;;;;;;10.52;8.48;;;7.30;38.90;;;;;;5028229;28;20033;-77
2021/04/18 01:27:23;;;;;;;11.15;9.27;;;7.30;39.00;;;;;;5011711;28;20427;-77
2021/04/18 01:29:51;;;;;;;9.40;8.40;;;7.30;39.00;;;;;;5010577;28;20523;-77
2021/04/18 01:32:21;;;;;;;10.15;8.57;;;7.20;38.90;;;;;;4981468;28;20022;-77
2021/04/18 01:34:48;;;;;;;9.48;8.48;;;7.20;38.90;;;;;;4995184;28;20307;-77
2021/04/18 01:37:19;;;;;;;10.98;8.18;;;7.20;39.00;;;;;;5012168;28;20026;-77
2021/04/18 01:39:47;;;;;;;8.85;7.95;;;7.10;38.90;;;;;;5012429;28;20416;-80
2021/04/18 01:42:13;;;;;;;10.48;8.57;;;7.10;38.90;;;;;;5012370;28;20188;-78
2021/04/18 01:44:40;;;;;;;11.30;8.85;;;7.00;38.80;;;;;;5012045;28;20321;-78
2021/04/18 01:47:06;;;;;;;9.73;8.13;;;7.00;38.80;;;;;;5012900;28;20420;-78
2021/04/18 01:49:34;;;;;;;9.27;8.38;;;7.00;38.90;;;;;;5014070;28;20029;-77
2021/04/18 01:52:00;;;;;;;9.90;8.05;;;7.00;39.00;;;;;;5014665;28;20057;-77
2021/04/18 01:54:27;;;;;;;10.98;8.18;;;6.90;38.80;;;;;;5014392;28;20029;-77
2021/04/18 01:56:53;;;;;;;11.45;8.80;;;6.90;38.90;;;;;;5014507;28;20025;-77
2021/04/18 01:59:21;;;;;;;9.38;8.18;;;6.90;39.00;;;;;;5014064;28;20619;-77
2021/04/18 02:02:12;;;;;;;11.13;8.80;;;6.80;38.80;;;;;;5010348;28;20107;-77
2021/04/18 02:04:46;;;;;;;11.82;8.80;;;6.80;38.90;;;;;;5015425;28;20037;-77
2021/04/18 02:07:12;;;;;;;10.40;8.73;;;6.80;38.90;;;;;;5015035;28;20035;-77
2021/04/18 02:09:39;;;;;;;11.30;9.43;;;6.70;38.70;;;;;;4998788;28;20253;-77
2021/04/18 02:12:09;;;;;;;9.82;8.68;;;6.70;38.90;;;;;;4995307;28;20056;-77
2021/04/18 02:14:39;;;;;;;9.52;8.57;;;6.70;38.90;;;;;;5011479;28;20037;-77
2021/04/18 02:17:10;;;;;;;11.07;8.75;;;6.70;39.00;;;;;;4995327;28;20053;-78
2021/04/18 02:19:36;;;;;;;11.75;8.52;;;6.70;39.00;;;;;;4979319;28;20049;-77
2021/04/18 02:22:03;;;;;;;11.95;9.10;;;6.60;38.90;;;;;;4994972;28;20065;-78
2021/04/18 02:24:32;;;;;;;10.60;8.95;;;6.60;38.90;;;;;;4995059;28;20042;-77
2021/04/18 02:26:59;;;;;;;11.05;8.60;;;6.60;39.00;;;;;;4995312;28;20022;-76
2021/04/18 02:29:33;;;;;;;11.60;9.43;;;6.50;38.90;;;;;;4995190;28;20026;-78
2021/04/18 02:32:05;;;;;;;9.57;8.32;;;6.50;38.90;;;;;;4979638;28;20030;-77
2021/04/18 02:34:36;;;;;;;11.07;8.70;;;6.50;38.90;;;;;;5011113;28;20485;-77
2021/04/18 02:37:02;;;;;;;12.00;9.23;;;6.50;39.00;;;;;;4994759;28;20030;-80
2021/04/18 02:39:29;;;;;;;9.18;8.27;;;6.40;38.80;;;;;;4995199;28;20037;-77
2021/04/18 02:41:56;;;;;;;11.38;9.50;;;6.40;38.90;;;;;;4978687;28;20041;-77
2021/04/18 02:44:24;;;;;;;11.75;8.73;;;6.40;38.90;;;;;;4994365;28;20038;-77
2021/04/18 02:46:50;;;;;;;13.25;9.90;;;6.30;38.80;;;;;;4994017;28;20038;-77
2021/04/18 02:49:16;;;;;;;13.52;9.18;;;6.30;38.80;;;;;;4994564;28;20030;-77
2021/04/18 02:51:43;;;;;;;11.52;9.90;;;6.30;38.90;;;;;;4978961;28;20026;-78
2021/04/18 02:54:10;;;;;;;10.30;8.43;;;6.30;38.90;;;;;;4994321;28;20493;-77
2021/04/18 02:56:40;;;;;;;11.93;9.63;;;6.20;38.80;;;;;;4978942;28;20277;-77
2021/04/18 02:59:09;;;;;;;10.75;8.88;;;6.20;38.90;;;;;;4994676;28;20190;-77
2021/04/18 03:01:36;;;;;;;10.93;9.48;;;6.20;38.90;;;;;;4978221;28;20069;-76
2021/04/18 03:04:06;;;;;;;12.05;10.02;;;6.20;39.00;;;;;;5010415;28;20038;-77
2021/04/18 03:06:33;;;;;;;13.50;9.80;;;6.10;38.90;;;;;;4994366;28;20022;-78
2021/04/18 03:08:59;;;;;;;11.43;10.23;;;6.10;38.90;;;;;;4994515;28;20107;-77
2021/04/18 03:11:27;;;;;;;11.93;10.15;;;6.10;39.00;;;;;;5006569;28;20052;-77
2021/04/18 03:13:59;;;;;;;11.25;10.07;;;6.10;39.00;;;;;;5013803;28;20087;-77
2021/04/18 03:16:27;;;;;;;11.75;9.38;;;6.10;39.10;;;;;;5013936;28;20148;-76
2021/04/18 03:18:53;;;;;;;10.45;9.23;;;6.00;38.90;;;;;;4997380;28;20032;-78
2021/04/18 03:21:20;;;;;;;11.05;9.70;;;6.00;38.90;;;;;;5013891;28;20424;-78
2021/04/18 03:23:47;;;;;;;10.85;9.48;;;6.00;39.00;;;;;;5013670;28;20424;-77
2021/04/18 03:26:15;;;;;;;11.35;9.75;;;5.90;38.80;;;;;;4997584;28;20465;-76
2021/04/18 03:28:43;;;;;;;12.60;11.10;;;5.90;38.90;;;;;;5013792;28;20504;-76
2021/04/18 03:31:13;;;;;;;14.02;10.40;;;5.90;39.00;;;;;;5013623;28;20029;-79
2021/04/18 03:33:52;;;;;;;12.82;9.82;;;5.90;39.00;;;;;;5013580;28;20381;-78
2021/04/18 03:36:18;;;;;;;12.82;9.48;;;5.90;39.00;;;;;;5031164;28;20536;-78
2021/04/18 03:38:45;;;;;;;13.07;9.98;;;5.80;38.90;;;;;;5013573;28;20465;-78
2021/04/18 03:41:14;;;;;;;13.52;10.27;;;5.80;38.90;;;;;;4997733;28;20026;-78
2021/04/18 03:43:40;;;;;;;13.18;10.23;;;5.80;39.00;;;;;;5013218;28;20075;-78
2021/04/18 03:46:11;;;;;;;11.63;9.85;;;5.80;39.00;;;;;;5013517;28;20037;-78
2021/04/18 03:48:48;;;;;;;13.52;9.40;;;5.70;38.90;;;;;;5013685;28;20033;-77
2021/04/18 03:51:15;;;;;;;11.35;9.98;;;5.70;38.90;;;;;;5012886;28;20026;-79
2021/04/18 03:53:44;;;;;;;12.27;10.50;;;5.70;39.00;;;;;;5013481;28;20132;-78
2021/04/18 03:56:13;;;;;;;12.18;9.93;;;5.70;39.00;;;;;;5014042;28;20035;-78
2021/04/18 03:58:45;;;;;;;13.55;10.55;;;5.70;39.10;;;;;;5020009;28;20037;-78
2021/04/18 04:01:14;;;;;;;11.93;10.68;;;5.60;38.90;;;;;;5019831;28;20029;-77
2021/04/18 04:03:41;;;;;;;14.13;11.27;;;5.60;39.00;;;;;;5037662;28;20378;-78
2021/04/18 04:06:11;;;;;;;11.40;10.23;;;5.50;38.80;;;;;;5019905;28;20341;-78
2021/04/18 04:08:37;;;;;;;12.27;10.07;;;5.50;38.90;;;;;;5003587;28;20476;-78
2021/04/18 04:11:04;;;;;;;10.73;9.55;;;5.50;38.90;;;;;;5010332;28;20620;-78
2021/04/18 04:13:33;;;;;;;12.15;9.18;;;5.50;39.00;;;;;;4984128;28;20029;-78
2021/04/18 04:16:00;;;;;;;11.50;9.38;;;5.50;39.00;;;;;;5000271;28;20181;-79
2021/04/18 04:18:28;;;;;;;13.18;10.73;;;5.50;39.10;;;;;;4983918;28;20030;-77
2021/04/18 04:21:13;;;;;;;12.50;10.25;;;5.50;39.10;;;;;;5016391;28;20109;-77
2021/04/18 04:24:09;;;;;;;11.23;9.70;;;5.50;39.10;;;;;;4930094;28;20036;-78
2021/04/18 04:26:35;;;;;;;12.27;10.07;;;5.50;39.10;;;;;;4999551;28;20057;-77
2021/04/18 04:29:00;;;;;;;12.25;9.55;;;5.40;38.90;;;;;;5016592;28;20053;-78
2021/04/18 04:31:26;;;;;;;12.10;10.70;;;5.40;39.00;;;;;;4999857;28;20038;-78
2021/04/18 04:33:52;;;;;;;10.27;8.82;;;5.40;39.10;;;;;;5017463;28;20065;-78
2021/04/18 04:36:19;;;;;;;12.45;10.43;;;5.40;39.10;;;;;;4999850;28;20030;-78
2021/04/18 04:38:45;;;;;;;15.38;10.55;;;5.40;39.10;;;;;;4999847;28;20029;-78
2021/04/18 04:41:11;;;;;;;13.48;10.57;;;5.30;38.90;;;;;;4999765;28;20405;-78
2021/04/18 04:43:37;;;;;;;13.68;11.10;;;5.30;39.00;;;;;;5017278;28;20485;-78
2021/04/18 04:46:03;;;;;;;15.95;11.43;;;5.30;39.00;;;;;;5015953;28;20022;-78
2021/04/18 04:48:29;;;;;;;12.63;10.38;;;5.30;39.60;;;;;;4986513;28;20030;-78
2021/04/18 04:50:55;;;;;;;11.40;9.63;;;5.30;39.10;;;;;;4977340;28;20030;-78
2021/04/18 04:53:21;;;;;;;12.90;11.48;;;5.30;39.10;;;;;;4976780;28;20055;-78
2021/04/18 04:55:48;;;;;;;12.85;10.57;;;5.30;39.20;;;;;;4992857;28;20034;-79
2021/04/18 04:58:15;;;;;;;14.18;10.07;;;5.20;39.00;;;;;;5003821;28;20042;-78
2021/04/18 05:00:42;;;;;;;12.30;10.95;;;5.20;39.10;;;;;;5009592;28;20363;-78
2021/04/18 05:03:09;;;;;;;12.73;10.27;;;5.20;39.10;;;;;;5021265;28;20482;-79
2021/04/18 05:05:35;;;;;;;13.70;10.82;;;5.20;39.10;;;;;;4978249;28;20040;-78
2021/04/18 05:08:01;;;;;;;11.98;10.50;;;5.20;39.20;;;;;;4993137;28;20489;-79
2021/04/18 05:10:27;;;;;;;12.93;10.25;;;5.10;39.00;;;;;;4976028;28;20049;-78
2021/04/18 05:12:53;;;;;;;10.77;9.68;;;5.10;39.10;;;;;;4975488;28;20033;-78
2021/04/18 05:15:22;;;;;;;13.30;10.68;;;5.20;39.30;;;;;;4991499;28;20117;-79
2021/04/18 05:17:52;;;;;;;13.48;10.77;;;5.10;39.10;;;;;;4991421;28;20080;-78
2021/04/18 05:20:19;;;;;;;11.48;9.95;;;5.10;39.10;;;;;;4992025;28;20048;-78
2021/04/18 05:22:45;;;;;;;12.73;11.07;;;5.20;39.30;;;;;;4991149;28;20022;-78
2021/04/18 05:25:13;;;;;;;12.70;10.85;;;5.10;39.10;;;;;;4975250;28;20760;-77
2021/04/18 05:27:42;;;;;;;12.20;10.85;;;5.20;39.30;;;;;;5007753;28;20037;-78
2021/04/18 05:30:09;;;;;;;13.00;11.13;;;5.10;39.20;;;;;;4975303;28;20045;-78
2021/04/18 05:32:36;;;;;;;11.80;9.77;;;5.20;39.40;;;;;;4975144;28;20034;-79
2021/04/18 05:35:02;;;;;;;11.23;10.13;;;5.20;39.50;;;;;;4975092;28;20037;-77
2021/04/18 05:37:29;;;;;;;13.55;11.27;;;5.20;39.40;;;;;;5007558;28;20096;-79
2021/04/18 05:39:55;;;;;;;10.82;9.80;;;5.30;39.60;;;;;;4975195;28;20030;-78
2021/04/18 05:42:20;;;;;;;15.48;11.48;;;5.30;39.60;;;;;;4975707;28;20413;-78
2021/04/18 05:44:47;;;;;;;13.57;12.18;;;5.30;39.50;;;;;;5007768;28;20044;-78
2021/04/18 05:47:14;;;;;;;12.82;9.75;;;5.30;39.50;;;;;;5008860;28;20061;-79
2021/04/18 05:49:40;;;;;;;13.32;10.93;;;5.40;39.70;;;;;;4974806;28;20038;-78
2021/04/18 05:52:06;;;;;;;16.25;11.05;;;5.40;39.60;;;;;;4991255;28;20042;-78
2021/04/18 05:54:32;;;;;;;14.70;10.68;;;5.50;39.80;;;;;;4991133;28;20050;-78
2021/04/18 05:56:58;;;;;;;11.70;9.95;;;5.50;39.80;;;;;;5007504;28;20026;-79
2021/04/18 05:59:24;;;;;;;12.25;11.00;;;5.60;40.00;;;;;;4991146;28;20072;-80
2021/04/18 06:01:50;;;;;;;12.30;10.90;;;5.60;39.90;;;;;;5006980;28;20062;-76
2021/04/18 06:04:16;;;;;;;11.98;10.80;;;5.70;40.10;;;;;;5006983;28;20185;-86
2021/04/18 06:06:42;;;;;;;13.80;11.38;;;5.70;40.10;;;;;;5008210;28;20030;-77
2021/04/18 06:09:08;;;;;;;12.02;10.73;;;5.80;40.50;;;;;;4990081;28;20037;-78
2021/04/18 06:11:34;;;;;;;12.98;11.60;;;5.90;41.00;;;;;;5010159;28;20593;-79
2021/04/18 06:14:00;;;;;;;13.20;11.77;;;6.00;41.40;;;;;;4990175;28;20539;-81
2021/04/18 06:16:26;;;;;;;13.18;11.77;;;6.10;41.70;;;;;;5009057;28;20484;-80
2021/04/18 06:18:52;;;;;;;13.90;11.50;;;6.20;41.90;;;;;;5005840;28;20136;-82
2021/04/18 06:21:19;;;;;;;13.52;12.07;;;6.30;42.20;;;;;;4998903;28;20117;-81
2021/04/18 06:23:45;;;;;;;12.95;11.57;;;6.40;42.60;;;;;;5009827;28;20033;-78
2021/04/18 06:26:12;;;;;;;13.73;12.23;;;6.50;42.80;;;;;;4993476;28;20637;-79
2021/04/18 06:28:38;;;;;;;15.77;12.85;;;6.70;43.30;;;;;;4993275;28;20061;-76
2021/04/18 06:31:05;;;;;;;18.70;12.75;;;6.80;43.50;;;;;;5010134;28;20112;-76
2021/04/18 06:33:31;;;;;;;18.60;13.98;;;7.00;43.90;;;;;;4993373;28;20033;-82
2021/04/18 06:35:57;;;;;;;21.50;13.10;;;7.20;44.30;;;;;;5009851;28;20499;-78
2021/04/18 06:38:23;;;;;;;14.75;12.05;;;7.40;44.60;;;;;;5009241;28;20091;-79
2021/04/18 06:40:53;;;;;;;16.23;12.77;;;7.50;44.70;;;;;;5009352;28;20067;-78
2021/04/18 06:43:21;;;;;;;16.80;14.35;;;7.70;45.30;;;;;;5009209;28;20428;-81
2021/04/18 06:45:55;;;;;;;14.10;12.68;;;7.80;45.30;;;;;;5009819;28;20624;-78
2021/04/18 06:48:21;;;;;;;14.48;12.98;;;8.00;45.70;;;;;;5009549;28;20037;-76
2021/04/18 06:50:52;;;;;;;14.27;12.65;;;8.10;45.60;;;;;;5009899;28;20029;-78
2021/04/18 06:53:18;;;;;;;15.05;12.75;;;8.20;45.70;;;;;;4993140;28;20080;-77
2021/04/18 06:55:44;;;;;;;14.25;12.77;;;8.40;46.10;;;;;;4991631;28;20029;-80
2021/04/18 06:58:11;;;;;;;15.07;12.35;;;8.50;46.20;;;;;;5008814;28;20037;-77
2021/04/18 07:00:38;;;;;;;15.23;13.63;;;8.70;46.50;;;;;;5009066;28;20038;-79
2021/04/18 07:03:14;;;;;;;14.93;13.18;;;9.00;47.10;;;;;;4992775;28;20110;-78
2021/04/18 07:05:48;;;;;;;13.50;12.02;;;9.10;47.30;;;;;;5027590;28;20087;-77
2021/04/18 07:08:27;;;;;;;13.80;12.18;;;9.40;47.70;;;;;;5025724;28;20030;-80
2021/04/18 07:11:15;;;;;;;12.95;11.60;;;9.50;47.70;;;;;;5009219;28;20076;-82
2021/04/18 07:13:44;;;;;;;12.57;11.27;;;9.80;48.80;;;;;;5008789;28;20068;-81
2021/04/18 07:16:30;;;;;;;12.27;11.02;;;10.00;49.20;;;;;;5008730;28;20037;-82
2021/04/18 07:18:57;;;;;;;13.20;11.80;;;10.30;50.40;;;;;;5009598;28;20037;-80
2021/04/18 07:21:43;;;;;;;12.35;11.05;;;10.70;50.70;;;;;;4993094;28;20025;-82
2021/04/18 07:24:09;;;;;;;12.25;11.07;;;11.00;51.20;;;;;;5009260;28;20030;-80
2021/04/18 07:26:35;;;;;;;15.15;11.10;;;11.30;51.50;;;;;;5008812;28;20042;-81
2021/04/18 07:29:16;;;;;;;11.63;10.32;;;11.60;52.10;;;;;;4992725;28;20502;-79
2021/04/18 07:31:42;;;;;;;12.88;11.07;;;11.80;53.00;;;;;;5008318;28;20056;-84
2021/04/18 07:34:11;;;;;;;13.23;11.48;;;12.20;53.30;;;;;;5008517;28;20805;-79
2021/04/18 07:36:39;;;;;;;15.60;11.18;;;12.40;53.50;;;;;;4992309;28;20073;-83
2021/04/18 07:39:08;;;;;;;12.25;10.00;;;12.80;54.00;;;;;;5008509;28;20071;-78
2021/04/18 07:41:41;;;;;;;13.30;11.68;;;13.10;54.40;;;;;;4992517;28;20087;-80
2021/04/18 07:44:08;;;;;;;12.32;10.80;;;13.30;54.60;;;;;;5008620;28;20036;-81
2021/04/18 07:46:35;;;;;;;13.35;12.07;;;13.60;54.60;;;;;;4991893;28;20025;-78
2021/04/18 07:49:01;;;;;;;15.50;11.48;;;13.80;54.30;;;;;;4992153;28;20030;-78
2021/04/18 07:51:28;;;;;;;18.33;12.52;;;14.00;54.10;;;;;;5008346;28;20026;-80
2021/04/18 07:53:54;;;;;;;15.18;12.75;;;14.20;54.10;;;;;;5007877;28;20048;-77
2021/04/18 07:56:20;;;;;;;14.02;12.68;;;14.30;53.90;;;;;;4992771;28;20025;-80
2021/04/18 07:58:46;;;;;;;14.57;13.13;;;14.40;53.70;;;;;;4991886;28;20129;-81
2021/04/18 08:01:13;;;;;;;14.80;12.82;;;14.60;53.60;;;;;;5008835;28;20116;-80
2021/04/18 08:03:44;;;;;;;14.93;12.07;;;14.80;53.50;;;;;;4992315;28;20115;-78
2021/04/18 08:06:11;;;;;;;15.82;13.50;;;15.00;53.30;;;;;;5009122;28;20424;-78
2021/04/18 08:08:52;;;;;;;16.05;12.85;;;15.20;53.20;;;;;;5007368;28;20113;-80
2021/04/18 08:11:21;;;;;;;15.88;14.18;;;15.40;52.80;;;;;;5014935;28;20049;-81
2021/04/18 08:13:52;;;;;;;14.63;13.20;;;15.50;52.50;;;;;;5023726;28;20095;-81
2021/04/18 08:16:32;;;;;;;17.80;15.93;;;15.70;52.30;;;;;;5005411;28;20417;-81
2021/04/18 08:19:10;;;;;;;19.35;17.30;;;15.80;51.40;;;;;;4999191;28;20473;-78
2021/04/18 08:21:39;;;;;;;19.33;17.33;;;15.90;50.50;;;;;;4997085;28;20025;-79
2021/04/18 08:24:18;;;;;;;17.20;15.40;;;15.80;50.20;;;;;;5008304;28;20032;-80
2021/04/18 08:27:02;;;;;;;17.55;15.75;;;15.70;49.90;;;;;;5024999;28;20322;-81
2021/04/18 08:29:29;;;;;;;19.10;16.05;;;15.60;49.50;;;;;;5007720;28;20039;-82
2021/04/18 08:31:56;;;;;;;17.48;15.57;;;15.60;49.50;;;;;;5024425;28;20512;-80
2021/04/18 08:34:27;;;;;;;17.33;15.52;;;15.60;49.40;;;;;;5007814;28;20048;-81
2021/04/18 08:36:54;;;;;;;15.98;14.38;;;15.60;49.20;;;;;;4975457;28;20037;-80
2021/04/18 08:39:20;;;;;;;16.77;15.07;;;15.50;48.90;;;;;;4991835;28;20041;-78
2021/04/18 08:41:56;;;;;;;17.20;14.73;;;15.50;48.80;;;;;;5007266;28;20144;-80
2021/04/18 08:44:37;;;;;;;18.33;15.18;;;15.50;48.60;;;;;;5010042;28;20276;-78
2021/04/18 08:47:13;;;;;;;18.13;15.05;;;15.40;48.30;;;;;;5027940;28;20500;-81
2021/04/18 08:49:56;;;;;;;17.67;15.88;;;15.40;48.10;;;;;;5025520;28;20029;-79
2021/04/18 08:52:31;;;;;;;16.25;14.35;;;15.40;48.10;;;;;;5012031;28;20397;-89
2021/04/18 08:55:02;;;;;;;16.35;14.60;;;15.30;47.90;;;;;;5010879;28;20484;-80
2021/04/18 08:57:31;;;;;;;19.85;16.83;;;15.30;47.90;;;;;;5011715;28;20120;-80
2021/04/18 09:00:00;;;;;;;20.25;17.05;;;15.30;47.90;;;;;;4994292;28;20488;-80
2021/04/18 09:02:28;;;;;;;22.27;17.77;;;15.30;47.80;;;;;;4994896;28;20021;-80
2021/04/18 09:04:59;;;;;;;17.63;15.75;;;15.40;48.00;;;;;;5012694;28;20052;-81
2021/04/18 09:07:36;;;;;;;18.90;15.32;;;15.40;47.90;;;;;;5011755;28;20029;-84
2021/04/18 09:10:08;;;;;;;18.13;16.13;;;15.40;47.70;;;;;;4995214;28;20121;-80
2021/04/18 09:12:35;;;;;;;17.70;15.80;;;15.50;47.70;;;;;;5011466;28;20507;-83
2021/04/18 09:15:02;;;;;;;17.15;15.35;;;15.50;47.70;;;;;;4995476;28;20025;-82
2021/04/18 09:17:30;;;;;;;22.77;15.82;;;15.50;47.60;;;;;;4995107;28;20025;-81
2021/04/18 09:19:58;;;;;;;15.23;13.63;;;15.60;47.60;;;;;;4994550;28;20025;-82
2021/04/18 09:22:32;;;;;;;17.75;14.50;;;15.60;47.40;;;;;;4995160;28;20045;-82
2021/04/18 09:25:07;;;;;;;15.68;14.07;;;15.70;47.40;;;;;;5010784;28;20033;-80
2021/04/18 09:27:34;;;;;;;15.30;13.70;;;15.70;47.30;;;;;;5027208;28;20053;-81
2021/04/18 09:30:10;;;;;;;15.55;13.77;;;15.80;47.50;;;;;;5001283;28;20057;-83
2021/04/18 09:32:40;;;;;;;19.83;15.45;;;15.80;47.30;;;;;;4995098;28;20025;-81
2021/04/18 09:35:08;;;;;;;21.38;16.88;;;15.90;47.50;;;;;;5010914;28;20049;-78
2021/04/18 09:37:41;;;;;;;24.38;17.73;;;16.00;47.70;;;;;;4993818;28;20029;-79
2021/04/18 09:40:15;;;;;;;24.43;18.93;;;16.10;47.70;;;;;;4991062;28;20485;-80
2021/04/18 09:42:44;;;;;;;;;;;16.20;47.80;;;;;;5008146;28;20033;-80
2021/04/18 09:45:14;;;;;;;20.33;16.77;;;16.30;48.00;;;;;;5002894;28;19913;-79
2021/04/18 09:47:42;;;;;;;22.15;16.65;;;16.30;47.80;;;;;;4992697;28;20033;-79
2021/04/18 09:50:16;;;;;;;18.77;16.55;;;16.40;47.90;;;;;;5009662;28;20034;-79
2021/04/18 09:52:42;;;;;;;17.92;15.50;;;16.40;47.60;;;;;;4994292;28;20083;-79
2021/04/18 09:55:19;;;;;;;19.10;16.42;;;16.50;47.80;;;;;;4994385;28;20037;-79
2021/04/18 09:57:53;;;;;;;18.67;15.27;;;16.50;47.50;;;;;;5010538;28;20484;-81
2021/04/18 10:00:30;;;;;;;18.42;15.60;;;16.50;47.40;;;;;;5010751;28;20037;-78
2021/04/18 10:03:10;;;;;;;21.05;16.25;;;16.50;47.40;;;;;;5027053;28;20037;-79
2021/04/18 10:05:57;;;;;;;22.55;15.25;;;16.50;47.20;;;;;;5010246;28;20546;-79
2021/04/18 10:08:28;;;;;;;16.42;14.35;;;16.60;47.30;;;;;;5011075;28;20025;-87
2021/04/18 10:11:18;;;;;;;16.83;14.63;;;16.60;47.30;;;;;;5011701;28;20053;-80
2021/04/18 10:13:49;;;;;;;20.98;14.70;;;16.60;47.10;;;;;;5017215;28;20103;-80
2021/04/18 10:16:19;;;;;;;18.38;14.32;;;16.70;47.30;;;;;;4978188;28;20353;-84
2021/04/18 10:19:04;;;;;;;18.38;14.75;;;16.70;47.10;;;;;;5026125;28;20531;-79
2021/04/18 10:21:33;;;;;;;15.13;13.48;;;16.80;47.10;;;;;;5010255;28;20083;-84
2021/04/18 10:23:59;;;;;;;18.13;14.93;;;16.80;47.00;;;;;;5022561;28;20034;-83
2021/04/18 10:26:28;;;;;;;16.52;14.07;;;16.80;46.90;;;;;;5043535;28;20120;-81
2021/04/18 10:29:42;;;;;;;15.43;13.77;;;16.90;47.00;;;;;;5009536;28;20366;-85
2021/04/18 10:32:32;;;;;;;15.63;12.48;;;16.90;46.70;;;;;;5028754;28;20029;-89
2021/04/18 10:34:58;;;;;;;18.27;13.70;;;17.00;46.90;;;;;;5016148;28;20037;-90
2021/04/18 10:37:25;;;;;;;16.00;12.75;;;17.00;46.80;;;;;;4998890;28;20026;-86
2021/04/18 10:39:52;;;;;;;16.60;14.13;;;17.00;46.80;;;;;;5011187;28;20037;-82
2021/04/18 10:42:18;;;;;;;14.48;12.95;;;17.00;46.70;;;;;;4994312;28;20044;-82
2021/04/18 10:44:47;;;;;;;15.85;13.25;;;17.00;46.50;;;;;;4995903;28;20028;-80
2021/04/18 10:47:18;;;;;;;16.05;14.25;;;17.10;46.60;;;;;;5012169;28;20084;-89
2021/04/18 10:49:49;;;;;;;14.60;13.20;;;17.10;46.50;;;;;;5011166;28;20025;-83
2021/04/18 10:52:16;;;;;;;14.25;12.38;;;17.10;46.40;;;;;;5008946;28;20406;-83
2021/04/18 10:54:42;;;;;;;14.52;12.93;;;17.20;46.50;;;;;;4992938;28;20037;-81
2021/04/18 10:57:09;;;;;;;13.07;11.88;;;17.20;46.40;;;;;;5006934;28;20025;-79
2021/04/18 10:59:35;;;;;;;15.23;11.95;;;17.20;46.20;;;;;;5011875;28;20036;-81
2021/04/18 11:02:01;;;;;;;13.73;12.30;;;17.30;46.30;;;;;;4990952;28;20392;-82
2021/04/18 11:04:27;;;;;;;14.68;12.57;;;17.30;46.20;;;;;;4979115;28;20054;-81
2021/04/18 11:06:53;;;;;;;14.13;12.65;;;17.40;46.20;;;;;;4975924;28;20575;-83
2021/04/18 11:09:23;;;;;;;13.48;11.57;;;17.50;46.20;;;;;;5011933;28;20056;-85
2021/04/18 11:11:51;;;;;;;13.65;12.15;;;17.60;46.20;;;;;;4988008;28;20159;-79
2021/04/18 11:14:17;;;;;;;15.98;12.60;;;17.70;46.20;;;;;;4971146;28;20049;-79
2021/04/18 11:16:44;;;;;;;14.25;12.93;;;17.80;46.20;;;;;;4971396;28;20029;-79
2021/04/18 11:19:10;;;;;;;11.98;10.77;;;17.80;46.10;;;;;;4984067;28;20031;-80
2021/04/18 11:21:36;;;;;;;13.23;11.85;;;17.90;46.10;;;;;;4952429;28;20112;-80
2021/04/18 11:24:03;;;;;;;13.02;11.75;;;18.00;46.20;;;;;;4984318;28;20036;-81
2021/04/18 11:26:32;;;;;;;12.95;11.65;;;18.10;46.20;;;;;;4988991;28;20555;-79
2021/04/18 11:28:58;;;;;;;14.40;11.35;;;18.20;46.20;;;;;;4989284;28;20469;-80
2021/04/18 11:31:27;;;;;;;12.25;11.07;;;18.20;46.10;;;;;;4989035;28;20026;-83
2021/04/18 11:34:16;;;;;;;11.75;10.55;;;18.30;46.20;;;;;;4972460;28;20049;-83
2021/04/18 11:37:14;;;;;;;12.00;10.80;;;18.30;46.00;;;;;;4990812;28;20236;-81
2021/04/18 11:39:43;;;;;;;13.13;11.75;;;18.40;46.10;;;;;;4984612;28;20041;-80
2021/04/18 11:42:09;;;;;;;12.15;10.95;;;18.40;46.00;;;;;;4973584;28;20030;-80
2021/04/18 11:44:36;;;;;;;13.55;11.65;;;18.40;46.00;;;;;;4973569;28;20040;-84
2021/04/18 11:47:04;;;;;;;15.82;11.65;;;18.40;45.90;;;;;;4957667;28;20117;-81
2021/04/18 11:49:30;;;;;;;15.32;13.13;;;18.30;45.30;;;;;;4973071;28;20042;-78
2021/04/18 11:51:56;;;;;;;22.35;14.73;;;18.40;44.80;;;;;;5004936;28;20168;-79
2021/04/18 11:54:22;;;;;;;15.48;12.98;;;18.20;43.60;;;;;;4972302;28;20042;-79
2021/04/18 11:56:48;;;;;;;15.98;14.15;;;18.10;42.90;;;;;;4988475;28;20173;-80
2021/04/18 11:59:14;;;;;;;13.70;12.30;;;18.10;42.50;;;;;;4989030;28;20026;-80
2021/04/18 12:01:40;;;;;;;13.98;12.15;;;18.00;41.90;;;;;;4988470;28;20030;-80
2021/04/18 12:04:06;;;;;;;15.55;12.85;;;17.90;41.30;;;;;;4972272;28;20022;-81
2021/04/18 12:06:32;;;;;;;20.10;13.90;;;17.80;40.70;;;;;;4988793;28;20033;-80
2021/04/18 12:08:58;;;;;;;15.60;13.93;;;17.80;40.40;;;;;;4988215;28;20034;-80
2021/04/18 12:11:24;;;;;;;20.58;14.27;;;17.70;39.90;;;;;;5002068;28;20056;-79
2021/04/18 12:13:51;;;;;;;17.40;13.15;;;17.70;39.70;;;;;;5001194;28;20058;-80
2021/04/18 12:16:17;;;;;;;14.40;12.52;;;17.60;39.30;;;;;;4972580;28;20428;-80
2021/04/18 12:18:44;;;;;;;19.00;14.10;;;17.60;39.10;;;;;;4971078;28;20032;-80
2021/04/18 12:21:11;;;;;;;18.23;13.50;;;17.60;39.00;;;;;;4976375;28;20034;-82
2021/04/18 12:23:37;;;;;;;18.13;14.10;;;17.60;38.90;;;;;;4976007;28;20175;-80
2021/04/18 12:26:04;;;;;;;14.23;12.82;;;17.60;38.70;;;;;;5008824;28;20136;-82
2021/04/18 12:28:31;;;;;;;14.93;13.10;;;17.60;38.50;;;;;;4992191;28;20041;-82
2021/04/18 12:31:07;;;;;;;16.60;14.23;;;17.60;38.30;;;;;;4976680;28;20121;-86
2021/04/18 12:33:41;;;;;;;20.85;13.88;;;17.70;38.00;;;;;;4976620;28;20173;-83
2021/04/18 12:36:08;;;;;;;17.77;14.10;;;17.70;37.90;;;;;;4992501;28;20057;-84
2021/04/18 12:38:35;;;;;;;16.42;13.85;;;17.70;37.90;;;;;;4976504;28;20033;-82
2021/04/18 12:41:01;;;;;;;16.65;14.25;;;17.80;38.00;;;;;;5008784;28;20036;-81
2021/04/18 12:43:27;;;;;;;16.17;12.98;;;17.80;37.80;;;;;;4992268;28;20022;-81
2021/04/18 12:45:53;;;;;;;17.98;14.55;;;17.90;37.90;;;;;;4975957;28;20029;-80
2021/04/18 12:48:19;;;;;;;17.23;14.38;;;18.00;37.80;;;;;;4992210;28;20076;-80